sensor_id;sensor_type;location;lat;lon;timestamp;pressure;altitude;pressure_sealevel;temperature
13497;BMP180;6820;49.374;8.452;2023-04-25T00:03:11;99953.78;;;18.15
13497;BMP180;6820;49.374;8.452;2023-04-25T00:07:13;99969.78;;;18.07
13497;BMP180;6820;49.374;8.452;2023-04-25T00:11:14;99968.06;;;18.06
13497;BMP180;6820;49.374;8.452;2023-04-25T00:15:16;99964.59;;;18.04
13497;BMP180;6820;49.374;8.452;2023-04-25T00:19:17;99957.63;;;18.00
13497;BMP180;6820;49.374;8.452;2023-04-25T00:23:19;99973.25;;;18.07
13497;BMP180;6820;49.374;8.452;2023-04-25T00:27:20;99969.97;;;18.13
13497;BMP180;6820;49.374;8.452;2023-04-25T00:31:22;99967.53;;;18.19
13497;BMP180;6820;49.374;8.452;2023-04-25T00:35:24;99959.91;;;18.22
13497;BMP180;6820;49.374;8.452;2023-04-25T00:39:25;99947.94;;;18.21
13497;BMP180;6820;49.374;8.452;2023-04-25T00:43:27;99954.72;;;18.20
13497;BMP180;6820;49.374;8.452;2023-04-25T00:47:29;99946.16;;;18.18
13497;BMP180;6820;49.374;8.452;2023-04-25T00:51:32;99936.66;;;18.14
13497;BMP180;6820;49.374;8.452;2023-04-25T00:55:34;99947.75;;;18.13
13497;BMP180;6820;49.374;8.452;2023-04-25T00:59:37;99943.41;;;18.11
13497;BMP180;6820;49.374;8.452;2023-04-25T01:03:39;99937.34;;;18.07
13497;BMP180;6820;49.374;8.452;2023-04-25T01:07:45;99942.19;;;17.98
13497;BMP180;6820;49.374;8.452;2023-04-25T01:11:47;99936.06;;;17.92
13497;BMP180;6820;49.374;8.452;2023-04-25T01:15:48;99929.22;;;17.91
13497;BMP180;6820;49.374;8.452;2023-04-25T01:19:50;99940.34;;;17.92
13497;BMP180;6820;49.374;8.452;2023-04-25T01:23:54;99936.00;;;17.89
13497;BMP180;6820;49.374;8.452;2023-04-25T01:27:57;99929.81;;;17.81
13497;BMP180;6820;49.374;8.452;2023-04-25T01:32:00;99931.44;;;17.78
13497;BMP180;6820;49.374;8.452;2023-04-25T01:36:02;99921.97;;;17.75
13497;BMP180;6820;49.374;8.452;2023-04-25T01:40:04;99915.88;;;17.72
13497;BMP180;6820;49.374;8.452;2023-04-25T01:44:06;99931.19;;;17.69
13497;BMP180;6820;49.374;8.452;2023-04-25T01:48:09;99933.66;;;17.65
13497;BMP180;6820;49.374;8.452;2023-04-25T01:52:11;99942.03;;;17.59
13497;BMP180;6820;49.374;8.452;2023-04-25T01:56:13;99943.72;;;17.59
13497;BMP180;6820;49.374;8.452;2023-04-25T02:00:14;99939.44;;;17.58
13497;BMP180;6820;49.374;8.452;2023-04-25T02:04:16;99940.22;;;17.55
13497;BMP180;6820;49.374;8.452;2023-04-25T02:08:18;99945.34;;;17.55
13497;BMP180;6820;49.374;8.452;2023-04-25T02:12:20;99946.09;;;17.51
13497;BMP180;6820;49.374;8.452;2023-04-25T02:16:39;99950.81;;;17.37
13497;BMP180;6820;49.374;8.452;2023-04-25T02:20:42;99944.81;;;17.36
13497;BMP180;6820;49.374;8.452;2023-04-25T02:24:44;99948.84;;;17.28
13497;BMP180;6820;49.374;8.452;2023-04-25T02:28:45;99946.84;;;17.17
13497;BMP180;6820;49.374;8.452;2023-04-25T02:32:47;99948.34;;;17.10
13497;BMP180;6820;49.374;8.452;2023-04-25T02:36:49;99941.84;;;16.94
13497;BMP180;6820;49.374;8.452;2023-04-25T02:40:53;99944.00;;;16.80
13497;BMP180;6820;49.374;8.452;2023-04-25T02:44:54;99942.47;;;16.85
13497;BMP180;6820;49.374;8.452;2023-04-25T02:48:56;99940.84;;;16.89
13497;BMP180;6820;49.374;8.452;2023-04-25T02:52:57;99940.16;;;16.94
13497;BMP180;6820;49.374;8.452;2023-04-25T02:57:04;99939.38;;;16.97
13497;BMP180;6820;49.374;8.452;2023-04-25T03:01:10;99930.13;;;17.02
13497;BMP180;6820;49.374;8.452;2023-04-25T03:05:12;99930.38;;;17.09
13497;BMP180;6820;49.374;8.452;2023-04-25T03:09:15;99931.34;;;17.12
13497;BMP180;6820;49.374;8.452;2023-04-25T03:13:16;99927.16;;;17.16
13497;BMP180;6820;49.374;8.452;2023-04-25T03:17:18;99928.94;;;17.18
13497;BMP180;6820;49.374;8.452;2023-04-25T03:21:20;99919.56;;;17.19
13497;BMP180;6820;49.374;8.452;2023-04-25T03:25:21;99922.00;;;17.14
13497;BMP180;6820;49.374;8.452;2023-04-25T03:29:23;99916.06;;;17.15
13497;BMP180;6820;49.374;8.452;2023-04-25T03:33:28;99919.28;;;17.10
13497;BMP180;6820;49.374;8.452;2023-04-25T03:37:30;99914.91;;;17.06
13497;BMP180;6820;49.374;8.452;2023-04-25T03:41:32;99915.00;;;17.09
13497;BMP180;6820;49.374;8.452;2023-04-25T03:45:42;99908.97;;;17.07
13497;BMP180;6820;49.374;8.452;2023-04-25T03:49:44;99903.19;;;17.12
13497;BMP180;6820;49.374;8.452;2023-04-25T03:53:47;99923.72;;;17.14
13497;BMP180;6820;49.374;8.452;2023-04-25T03:57:49;99938.75;;;17.04
13497;BMP180;6820;49.374;8.452;2023-04-25T04:01:51;99929.22;;;17.00
13497;BMP180;6820;49.374;8.452;2023-04-25T04:05:53;99928.88;;;16.88
13497;BMP180;6820;49.374;8.452;2023-04-25T04:09:55;99932.34;;;16.90
13497;BMP180;6820;49.374;8.452;2023-04-25T04:14:02;99934.78;;;16.85
13497;BMP180;6820;49.374;8.452;2023-04-25T04:18:04;99937.38;;;16.87
13497;BMP180;6820;49.374;8.452;2023-04-25T04:22:08;99936.69;;;16.92
13497;BMP180;6820;49.374;8.452;2023-04-25T04:26:09;99945.34;;;16.97
13497;BMP180;6820;49.374;8.452;2023-04-25T04:30:39;99945.34;;;16.96
13497;BMP180;6820;49.374;8.452;2023-04-25T04:34:42;99942.41;;;16.84
13497;BMP180;6820;49.374;8.452;2023-04-25T04:38:48;99948.78;;;16.69
13497;BMP180;6820;49.374;8.452;2023-04-25T04:43:07;99939.19;;;16.62
13497;BMP180;6820;49.374;8.452;2023-04-25T04:47:27;99947.72;;;16.62
13497;BMP180;6820;49.374;8.452;2023-04-25T04:51:46;99956.34;;;16.66
13497;BMP180;6820;49.374;8.452;2023-04-25T04:56:14;99961.25;;;16.58
13497;BMP180;6820;49.374;8.452;2023-04-25T05:00:25;99968.88;;;16.57
13497;BMP180;6820;49.374;8.452;2023-04-25T05:04:47;99969.53;;;16.50
13497;BMP180;6820;49.374;8.452;2023-04-25T05:09:08;99962.81;;;16.55
13497;BMP180;6820;49.374;8.452;2023-04-25T05:13:30;99957.91;;;16.61
13497;BMP180;6820;49.374;8.452;2023-04-25T05:17:57;99959.56;;;16.59
13497;BMP180;6820;49.374;8.452;2023-04-25T05:21:59;99955.84;;;16.77
13497;BMP180;6820;49.374;8.452;2023-04-25T05:26:12;99957.38;;;17.00
13497;BMP180;6820;49.374;8.452;2023-04-25T05:30:40;99951.97;;;17.17
13497;BMP180;6820;49.374;8.452;2023-04-25T05:34:54;99956.38;;;17.22
13497;BMP180;6820;49.374;8.452;2023-04-25T05:39:18;99973.38;;;17.20
13497;BMP180;6820;49.374;8.452;2023-04-25T05:43:39;99980.94;;;17.16
13497;BMP180;6820;49.374;8.452;2023-04-25T05:47:54;99971.44;;;17.12
13497;BMP180;6820;49.374;8.452;2023-04-25T05:52:06;99982.88;;;17.24
13497;BMP180;6820;49.374;8.452;2023-04-25T05:56:26;99985.19;;;17.15
13497;BMP180;6820;49.374;8.452;2023-04-25T06:00:30;99992.72;;;17.11
13497;BMP180;6820;49.374;8.452;2023-04-25T06:04:31;99981.47;;;17.06
13497;BMP180;6820;49.374;8.452;2023-04-25T06:08:34;99997.00;;;17.10
13497;BMP180;6820;49.374;8.452;2023-04-25T06:12:37;100001.13;;;17.07
13497;BMP180;6820;49.374;8.452;2023-04-25T06:16:40;100003.13;;;16.89
13497;BMP180;6820;49.374;8.452;2023-04-25T06:20:41;100000.56;;;16.89
13497;BMP180;6820;49.374;8.452;2023-04-25T06:24:44;99998.84;;;17.16
13497;BMP180;6820;49.374;8.452;2023-04-25T06:28:47;100002.09;;;17.38
13497;BMP180;6820;49.374;8.452;2023-04-25T06:32:49;99997.28;;;17.50
13497;BMP180;6820;49.374;8.452;2023-04-25T06:36:51;100014.00;;;17.38
13497;BMP180;6820;49.374;8.452;2023-04-25T06:40:54;100012.03;;;17.29
13497;BMP180;6820;49.374;8.452;2023-04-25T06:44:56;100008.09;;;17.40
13497;BMP180;6820;49.374;8.452;2023-04-25T06:48:57;100021.19;;;17.49
13497;BMP180;6820;49.374;8.452;2023-04-25T06:52:59;100017.53;;;17.41
13497;BMP180;6820;49.374;8.452;2023-04-25T06:57:03;100023.47;;;17.40
13497;BMP180;6820;49.374;8.452;2023-04-25T07:01:07;100019.34;;;17.45
13497;BMP180;6820;49.374;8.452;2023-04-25T07:05:09;100015.78;;;17.40
13497;BMP180;6820;49.374;8.452;2023-04-25T07:09:11;100026.56;;;17.29
13497;BMP180;6820;49.374;8.452;2023-04-25T07:13:15;100031.72;;;17.30
13497;BMP180;6820;49.374;8.452;2023-04-25T07:17:18;100032.59;;;17.31
13497;BMP180;6820;49.374;8.452;2023-04-25T07:21:20;100026.09;;;17.41
13497;BMP180;6820;49.374;8.452;2023-04-25T07:25:24;100032.09;;;17.72
13497;BMP180;6820;49.374;8.452;2023-04-25T07:29:28;100029.00;;;17.85
13497;BMP180;6820;49.374;8.452;2023-04-25T07:33:33;100031.06;;;17.98
13497;BMP180;6820;49.374;8.452;2023-04-25T07:37:35;100042.44;;;18.06
13497;BMP180;6820;49.374;8.452;2023-04-25T07:41:43;100039.69;;;18.00
13497;BMP180;6820;49.374;8.452;2023-04-25T07:45:51;100046.06;;;17.83
13497;BMP180;6820;49.374;8.452;2023-04-25T07:49:54;100058.97;;;17.88
13497;BMP180;6820;49.374;8.452;2023-04-25T07:53:55;100061.91;;;18.01
13497;BMP180;6820;49.374;8.452;2023-04-25T07:57:57;100063.84;;;18.08
13497;BMP180;6820;49.374;8.452;2023-04-25T08:02:02;100069.28;;;18.18
13497;BMP180;6820;49.374;8.452;2023-04-25T08:06:04;100081.97;;;18.14
13497;BMP180;6820;49.374;8.452;2023-04-25T08:10:16;100092.09;;;18.41
13497;BMP180;6820;49.374;8.452;2023-04-25T08:14:18;100089.13;;;18.59
13497;BMP180;6820;49.374;8.452;2023-04-25T08:18:20;100093.63;;;18.68
13497;BMP180;6820;49.374;8.452;2023-04-25T08:22:24;100108.50;;;18.81
13497;BMP180;6820;49.374;8.452;2023-04-25T08:26:33;100111.25;;;18.87
13497;BMP180;6820;49.374;8.452;2023-04-25T08:30:36;100118.88;;;18.86
13497;BMP180;6820;49.374;8.452;2023-04-25T08:34:39;100122.38;;;18.88
13497;BMP180;6820;49.374;8.452;2023-04-25T08:38:43;100130.69;;;19.11
13497;BMP180;6820;49.374;8.452;2023-04-25T08:42:46;100127.38;;;19.17
13497;BMP180;6820;49.374;8.452;2023-04-25T08:46:49;100142.06;;;19.22
13497;BMP180;6820;49.374;8.452;2023-04-25T08:51:07;100138.72;;;19.24
13497;BMP180;6820;49.374;8.452;2023-04-25T08:55:15;100144.28;;;19.44
13497;BMP180;6820;49.374;8.452;2023-04-25T08:59:17;100139.66;;;19.67
13497;BMP180;6820;49.374;8.452;2023-04-25T09:03:20;100148.19;;;19.66
13497;BMP180;6820;49.374;8.452;2023-04-25T09:07:23;100148.69;;;19.49
13497;BMP180;6820;49.374;8.452;2023-04-25T09:11:25;100150.78;;;19.28
13497;BMP180;6820;49.374;8.452;2023-04-25T09:15:29;100163.03;;;19.03
13497;BMP180;6820;49.374;8.452;2023-04-25T09:19:51;100165.59;;;19.03
13497;BMP180;6820;49.374;8.452;2023-04-25T09:24:06;100169.13;;;19.08
13497;BMP180;6820;49.374;8.452;2023-04-25T09:28:09;100165.25;;;19.25
13497;BMP180;6820;49.374;8.452;2023-04-25T09:32:23;100183.25;;;19.25
13497;BMP180;6820;49.374;8.452;2023-04-25T09:36:30;100174.06;;;19.36
13497;BMP180;6820;49.374;8.452;2023-04-25T09:40:51;100192.31;;;19.46
13497;BMP180;6820;49.374;8.452;2023-04-25T09:45:03;100194.69;;;19.39
13497;BMP180;6820;49.374;8.452;2023-04-25T09:49:10;100189.50;;;19.37
13497;BMP180;6820;49.374;8.452;2023-04-25T09:53:38;100205.53;;;19.62
13497;BMP180;6820;49.374;8.452;2023-04-25T09:57:51;100209.81;;;19.62
13497;BMP180;6820;49.374;8.452;2023-04-25T10:01:55;100213.75;;;19.47
13497;BMP180;6820;49.374;8.452;2023-04-25T10:06:19;100212.69;;;19.39
13497;BMP180;6820;49.374;8.452;2023-04-25T10:10:24;100217.34;;;19.54
13497;BMP180;6820;49.374;8.452;2023-04-25T10:14:31;100222.06;;;19.73
13497;BMP180;6820;49.374;8.452;2023-04-25T10:18:33;100226.88;;;19.95
13497;BMP180;6820;49.374;8.452;2023-04-25T10:22:37;100226.69;;;20.27
13497;BMP180;6820;49.374;8.452;2023-04-25T10:26:40;100228.41;;;20.26
13497;BMP180;6820;49.374;8.452;2023-04-25T10:31:03;100241.50;;;20.37
13497;BMP180;6820;49.374;8.452;2023-04-25T10:35:18;100232.63;;;20.64
13497;BMP180;6820;49.374;8.452;2023-04-25T10:39:26;100229.16;;;21.10
13497;BMP180;6820;49.374;8.452;2023-04-25T10:47:36;100240.03;;;20.10
13497;BMP180;6820;49.374;8.452;2023-04-25T10:51:44;100251.88;;;19.65
13497;BMP180;6820;49.374;8.452;2023-04-25T10:55:51;100259.47;;;19.26
13497;BMP180;6820;49.374;8.452;2023-04-25T10:59:53;100255.84;;;19.18
13497;BMP180;6820;49.374;8.452;2023-04-25T11:03:57;100263.63;;;19.20
13497;BMP180;6820;49.374;8.452;2023-04-25T11:08:00;100266.81;;;19.11
13497;BMP180;6820;49.374;8.452;2023-04-25T11:12:09;100261.19;;;19.25
13497;BMP180;6820;49.374;8.452;2023-04-25T11:16:13;100248.75;;;19.42
13497;BMP180;6820;49.374;8.452;2023-04-25T11:20:27;100248.72;;;19.75
13497;BMP180;6820;49.374;8.452;2023-04-25T11:24:34;100247.06;;;20.16
13497;BMP180;6820;49.374;8.452;2023-04-25T11:28:36;100250.97;;;20.39
13497;BMP180;6820;49.374;8.452;2023-04-25T11:32:39;100250.03;;;20.34
13497;BMP180;6820;49.374;8.452;2023-04-25T11:36:41;100237.91;;;20.71
13497;BMP180;6820;49.374;8.452;2023-04-25T11:40:42;100246.81;;;20.89
13497;BMP180;6820;49.374;8.452;2023-04-25T11:44:44;100252.41;;;20.66
13497;BMP180;6820;49.374;8.452;2023-04-25T11:48:46;100258.31;;;20.61
13497;BMP180;6820;49.374;8.452;2023-04-25T11:52:49;100264.78;;;20.44
13497;BMP180;6820;49.374;8.452;2023-04-25T11:56:51;100265.06;;;20.16
13497;BMP180;6820;49.374;8.452;2023-04-25T12:00:53;100275.47;;;20.21
13497;BMP180;6820;49.374;8.452;2023-04-25T12:04:59;100280.91;;;20.36
13497;BMP180;6820;49.374;8.452;2023-04-25T12:09:28;100290.56;;;20.06
13497;BMP180;6820;49.374;8.452;2023-04-25T12:13:31;100294.88;;;19.71
13497;BMP180;6820;49.374;8.452;2023-04-25T12:17:33;100302.53;;;19.69
13497;BMP180;6820;49.374;8.452;2023-04-25T12:21:34;100300.94;;;19.74
13497;BMP180;6820;49.374;8.452;2023-04-25T12:25:50;100301.47;;;19.95
13497;BMP180;6820;49.374;8.452;2023-04-25T12:29:54;100289.31;;;20.26
13497;BMP180;6820;49.374;8.452;2023-04-25T12:33:56;100282.50;;;20.69
13497;BMP180;6820;49.374;8.452;2023-04-25T12:37:58;100289.13;;;21.02
13497;BMP180;6820;49.374;8.452;2023-04-25T12:42:00;100282.25;;;21.01
13497;BMP180;6820;49.374;8.452;2023-04-25T12:46:02;100282.25;;;21.01
13497;BMP180;6820;49.374;8.452;2023-04-25T12:50:05;100294.59;;;20.73
13497;BMP180;6820;49.374;8.452;2023-04-25T12:54:07;100299.78;;;20.74
13497;BMP180;6820;49.374;8.452;2023-04-25T12:58:09;100297.53;;;20.90
13497;BMP180;6820;49.374;8.452;2023-04-25T13:02:11;100307.50;;;20.76
13497;BMP180;6820;49.374;8.452;2023-04-25T13:06:13;100300.13;;;20.51
13497;BMP180;6820;49.374;8.452;2023-04-25T13:10:15;100306.28;;;20.57
13497;BMP180;6820;49.374;8.452;2023-04-25T13:14:17;100300.84;;;20.85
13497;BMP180;6820;49.374;8.452;2023-04-25T13:18:19;100286.34;;;21.37
13497;BMP180;6820;49.374;8.452;2023-04-25T13:22:20;100295.13;;;21.46
13497;BMP180;6820;49.374;8.452;2023-04-25T13:26:22;100296.16;;;21.58
13497;BMP180;6820;49.374;8.452;2023-04-25T13:30:23;100294.94;;;21.36
13497;BMP180;6820;49.374;8.452;2023-04-25T13:34:25;100302.41;;;21.22
13497;BMP180;6820;49.374;8.452;2023-04-25T13:38:27;100299.19;;;21.34
13497;BMP180;6820;49.374;8.452;2023-04-25T13:42:28;100300.53;;;21.14
13497;BMP180;6820;49.374;8.452;2023-04-25T13:46:30;100309.72;;;21.00
13497;BMP180;6820;49.374;8.452;2023-04-25T13:50:47;100317.00;;;20.77
13497;BMP180;6820;49.374;8.452;2023-04-25T13:54:49;100317.81;;;20.76
13497;BMP180;6820;49.374;8.452;2023-04-25T13:58:52;100314.53;;;20.82
13497;BMP180;6820;49.374;8.452;2023-04-25T14:02:53;100314.00;;;20.98
13497;BMP180;6820;49.374;8.452;2023-04-25T14:06:55;100321.47;;;20.86
13497;BMP180;6820;49.374;8.452;2023-04-25T14:10:57;100316.09;;;21.20
13497;BMP180;6820;49.374;8.452;2023-04-25T14:14:59;100314.06;;;21.03
13497;BMP180;6820;49.374;8.452;2023-04-25T14:19:01;100333.78;;;20.58
13497;BMP180;6820;49.374;8.452;2023-04-25T14:23:03;100329.81;;;20.34
13497;BMP180;6820;49.374;8.452;2023-04-25T14:27:04;100330.97;;;20.10
13497;BMP180;6820;49.374;8.452;2023-04-25T14:31:06;100331.72;;;20.05
13497;BMP180;6820;49.374;8.452;2023-04-25T14:35:08;100329.94;;;20.02
13497;BMP180;6820;49.374;8.452;2023-04-25T14:39:10;100344.00;;;20.17
13497;BMP180;6820;49.374;8.452;2023-04-25T14:43:12;100346.84;;;19.93
13497;BMP180;6820;49.374;8.452;2023-04-25T14:47:13;100351.38;;;19.69
13497;BMP180;6820;49.374;8.452;2023-04-25T14:51:15;100348.59;;;19.60
13497;BMP180;6820;49.374;8.452;2023-04-25T14:55:17;100341.03;;;19.66
13497;BMP180;6820;49.374;8.452;2023-04-25T14:59:18;100337.09;;;19.80
13497;BMP180;6820;49.374;8.452;2023-04-25T15:03:21;100338.38;;;19.97
13497;BMP180;6820;49.374;8.452;2023-04-25T15:07:23;100333.25;;;19.97
13497;BMP180;6820;49.374;8.452;2023-04-25T15:11:26;100337.25;;;20.22
13497;BMP180;6820;49.374;8.452;2023-04-25T15:15:27;100342.06;;;20.47
13497;BMP180;6820;49.374;8.452;2023-04-25T15:19:29;100345.81;;;20.58
13497;BMP180;6820;49.374;8.452;2023-04-25T15:23:30;100350.09;;;20.59
13497;BMP180;6820;49.374;8.452;2023-04-25T15:27:32;100352.63;;;20.56
13497;BMP180;6820;49.374;8.452;2023-04-25T15:31:34;100357.38;;;20.40
13497;BMP180;6820;49.374;8.452;2023-04-25T15:35:37;100360.38;;;20.21
13497;BMP180;6820;49.374;8.452;2023-04-25T15:39:38;100356.72;;;20.10
13497;BMP180;6820;49.374;8.452;2023-04-25T15:43:40;100371.09;;;20.02
13497;BMP180;6820;49.374;8.452;2023-04-25T15:47:42;100371.59;;;19.88
13497;BMP180;6820;49.374;8.452;2023-04-25T15:51:44;100375.72;;;19.82
13497;BMP180;6820;49.374;8.452;2023-04-25T15:55:46;100376.00;;;19.60
13497;BMP180;6820;49.374;8.452;2023-04-25T15:59:48;100373.13;;;19.48
13497;BMP180;6820;49.374;8.452;2023-04-25T16:03:50;100378.09;;;19.42
13497;BMP180;6820;49.374;8.452;2023-04-25T16:07:54;100373.03;;;19.44
13497;BMP180;6820;49.374;8.452;2023-04-25T16:11:56;100377.47;;;19.51
13497;BMP180;6820;49.374;8.452;2023-04-25T16:15:57;100383.22;;;19.41
13497;BMP180;6820;49.374;8.452;2023-04-25T16:19:59;100382.88;;;19.29
13497;BMP180;6820;49.374;8.452;2023-04-25T16:24:02;100385.25;;;19.22
13497;BMP180;6820;49.374;8.452;2023-04-25T16:28:04;100392.25;;;19.27
13497;BMP180;6820;49.374;8.452;2023-04-25T16:32:06;100387.25;;;19.31
13497;BMP180;6820;49.374;8.452;2023-04-25T16:36:08;100397.75;;;19.40
13497;BMP180;6820;49.374;8.452;2023-04-25T16:40:10;100398.72;;;19.44
13497;BMP180;6820;49.374;8.452;2023-04-25T16:44:12;100401.94;;;19.35
13497;BMP180;6820;49.374;8.452;2023-04-25T16:48:14;100403.38;;;19.26
13497;BMP180;6820;49.374;8.452;2023-04-25T16:52:16;100403.25;;;19.22
13497;BMP180;6820;49.374;8.452;2023-04-25T16:56:18;100408.22;;;19.16
13497;BMP180;6820;49.374;8.452;2023-04-25T17:00:20;100417.47;;;19.09
13497;BMP180;6820;49.374;8.452;2023-04-25T17:04:21;100417.09;;;18.96
13497;BMP180;6820;49.374;8.452;2023-04-25T17:08:23;100416.75;;;18.86
13497;BMP180;6820;49.374;8.452;2023-04-25T17:12:25;100432.69;;;18.76
13497;BMP180;6820;49.374;8.452;2023-04-25T17:16:34;100426.47;;;18.68
13497;BMP180;6820;49.374;8.452;2023-04-25T17:20:37;100429.00;;;18.66
13497;BMP180;6820;49.374;8.452;2023-04-25T17:24:38;100437.25;;;18.57
13497;BMP180;6820;49.374;8.452;2023-04-25T17:28:41;100438.72;;;18.49
13497;BMP180;6820;49.374;8.452;2023-04-25T17:32:45;100440.28;;;18.44
13497;BMP180;6820;49.374;8.452;2023-04-25T17:36:47;100441.03;;;18.41
13497;BMP180;6820;49.374;8.452;2023-04-25T17:40:48;100445.38;;;18.42
13497;BMP180;6820;49.374;8.452;2023-04-25T17:44:50;100458.91;;;18.38
13497;BMP180;6820;49.374;8.452;2023-04-25T17:48:52;100451.81;;;18.30
13497;BMP180;6820;49.374;8.452;2023-04-25T17:52:55;100465.81;;;18.13
13497;BMP180;6820;49.374;8.452;2023-04-25T17:56:56;100467.06;;;18.01
13497;BMP180;6820;49.374;8.452;2023-04-25T18:00:58;100478.81;;;17.95
13497;BMP180;6820;49.374;8.452;2023-04-25T18:04:59;100482.06;;;17.89
13497;BMP180;6820;49.374;8.452;2023-04-25T18:09:02;100489.69;;;17.88
13497;BMP180;6820;49.374;8.452;2023-04-25T18:13:08;100498.13;;;17.85
13497;BMP180;6820;49.374;8.452;2023-04-25T18:17:10;100503.06;;;17.79
13497;BMP180;6820;49.374;8.452;2023-04-25T18:21:12;100510.56;;;17.73
13497;BMP180;6820;49.374;8.452;2023-04-25T18:25:14;100518.28;;;17.75
13497;BMP180;6820;49.374;8.452;2023-04-25T18:29:17;100519.28;;;17.78
13497;BMP180;6820;49.374;8.452;2023-04-25T18:33:32;100516.56;;;17.74
13497;BMP180;6820;49.374;8.452;2023-04-25T18:37:33;100515.69;;;17.73
13497;BMP180;6820;49.374;8.452;2023-04-25T18:41:36;100521.69;;;17.74
13497;BMP180;6820;49.374;8.452;2023-04-25T18:45:58;100531.00;;;17.72
13497;BMP180;6820;49.374;8.452;2023-04-25T18:49:59;100540.34;;;17.70
13497;BMP180;6820;49.374;8.452;2023-04-25T18:54:01;100546.81;;;17.61
13497;BMP180;6820;49.374;8.452;2023-04-25T18:58:04;100545.00;;;17.57
13497;BMP180;6820;49.374;8.452;2023-04-25T19:02:08;100550.75;;;17.51
13497;BMP180;6820;49.374;8.452;2023-04-25T19:06:10;100544.63;;;17.48
13497;BMP180;6820;49.374;8.452;2023-04-25T19:10:11;100552.44;;;17.51
13497;BMP180;6820;49.374;8.452;2023-04-25T19:14:14;100562.66;;;17.49
13497;BMP180;6820;49.374;8.452;2023-04-25T19:18:16;100553.97;;;17.46
13497;BMP180;6820;49.374;8.452;2023-04-25T19:22:18;100565.56;;;17.37
13497;BMP180;6820;49.374;8.452;2023-04-25T19:26:20;100561.00;;;17.28
13497;BMP180;6820;49.374;8.452;2023-04-25T19:30:22;100565.88;;;17.22
13497;BMP180;6820;49.374;8.452;2023-04-25T19:34:24;100563.88;;;17.14
13497;BMP180;6820;49.374;8.452;2023-04-25T19:38:26;100585.91;;;17.10
13497;BMP180;6820;49.374;8.452;2023-04-25T19:42:27;100587.72;;;17.13
13497;BMP180;6820;49.374;8.452;2023-04-25T19:46:29;100587.19;;;17.21
13497;BMP180;6820;49.374;8.452;2023-04-25T19:50:32;100588.94;;;17.22
13497;BMP180;6820;49.374;8.452;2023-04-25T19:54:34;100599.31;;;17.25
13497;BMP180;6820;49.374;8.452;2023-04-25T19:58:35;100600.34;;;17.30
13497;BMP180;6820;49.374;8.452;2023-04-25T20:02:38;100596.09;;;17.31
13497;BMP180;6820;49.374;8.452;2023-04-25T20:06:40;100606.56;;;17.37
13497;BMP180;6820;49.374;8.452;2023-04-25T20:10:42;100612.50;;;17.36
13497;BMP180;6820;49.374;8.452;2023-04-25T20:14:44;100607.78;;;17.24
13497;BMP180;6820;49.374;8.452;2023-04-25T20:18:46;100627.19;;;17.18
13497;BMP180;6820;49.374;8.452;2023-04-25T20:22:48;100620.25;;;17.15
13497;BMP180;6820;49.374;8.452;2023-04-25T20:26:51;100620.13;;;17.12
13497;BMP180;6820;49.374;8.452;2023-04-25T20:30:53;100622.31;;;17.04
13497;BMP180;6820;49.374;8.452;2023-04-25T20:34:54;100620.94;;;16.91
13497;BMP180;6820;49.374;8.452;2023-04-25T20:38:57;100632.44;;;16.80
13497;BMP180;6820;49.374;8.452;2023-04-25T20:42:58;100623.72;;;16.76
13497;BMP180;6820;49.374;8.452;2023-04-25T20:47:01;100639.69;;;16.70
13497;BMP180;6820;49.374;8.452;2023-04-25T20:51:03;100629.16;;;16.63
13497;BMP180;6820;49.374;8.452;2023-04-25T20:55:07;100632.03;;;16.50
13497;BMP180;6820;49.374;8.452;2023-04-25T20:59:11;100625.59;;;16.39
13497;BMP180;6820;49.374;8.452;2023-04-25T21:03:13;100638.06;;;16.32
13497;BMP180;6820;49.374;8.452;2023-04-25T21:07:16;100629.22;;;16.24
13497;BMP180;6820;49.374;8.452;2023-04-25T21:11:18;100633.91;;;16.15
13497;BMP180;6820;49.374;8.452;2023-04-25T21:15:20;100631.63;;;16.02
13497;BMP180;6820;49.374;8.452;2023-04-25T21:19:21;100647.38;;;15.92
13497;BMP180;6820;49.374;8.452;2023-04-25T21:23:23;100641.06;;;15.84
13497;BMP180;6820;49.374;8.452;2023-04-25T21:27:25;100643.88;;;15.72
13497;BMP180;6820;49.374;8.452;2023-04-25T21:31:26;100644.41;;;15.65
13497;BMP180;6820;49.374;8.452;2023-04-25T21:35:28;100641.91;;;15.66
13497;BMP180;6820;49.374;8.452;2023-04-25T21:39:30;100643.38;;;15.61
13497;BMP180;6820;49.374;8.452;2023-04-25T21:43:31;100662.47;;;15.51
13497;BMP180;6820;49.374;8.452;2023-04-25T21:47:33;100656.34;;;15.47
13497;BMP180;6820;49.374;8.452;2023-04-25T21:51:35;100662.78;;;15.39
13497;BMP180;6820;49.374;8.452;2023-04-25T21:55:38;100670.69;;;15.26
13497;BMP180;6820;49.374;8.452;2023-04-25T21:59:39;100675.38;;;15.18
13497;BMP180;6820;49.374;8.452;2023-04-25T22:03:41;100678.88;;;15.20
13497;BMP180;6820;49.374;8.452;2023-04-25T22:07:43;100673.31;;;15.28
13497;BMP180;6820;49.374;8.452;2023-04-25T22:11:45;100669.50;;;15.37
13497;BMP180;6820;49.374;8.452;2023-04-25T22:15:47;100678.25;;;15.42
13497;BMP180;6820;49.374;8.452;2023-04-25T22:19:49;100686.88;;;15.44
13497;BMP180;6820;49.374;8.452;2023-04-25T22:23:52;100688.59;;;15.45
13497;BMP180;6820;49.374;8.452;2023-04-25T22:27:54;100682.50;;;15.42
13497;BMP180;6820;49.374;8.452;2023-04-25T22:31:56;100685.03;;;15.42
13497;BMP180;6820;49.374;8.452;2023-04-25T22:35:58;100701.91;;;15.38
13497;BMP180;6820;49.374;8.452;2023-04-25T22:40:04;100700.81;;;15.33
13497;BMP180;6820;49.374;8.452;2023-04-25T22:44:09;100698.78;;;15.26
13497;BMP180;6820;49.374;8.452;2023-04-25T22:48:12;100705.47;;;15.24
13497;BMP180;6820;49.374;8.452;2023-04-25T22:52:14;100710.59;;;15.24
13497;BMP180;6820;49.374;8.452;2023-04-25T22:56:15;100708.13;;;15.26
13497;BMP180;6820;49.374;8.452;2023-04-25T23:00:17;100708.97;;;15.26
13497;BMP180;6820;49.374;8.452;2023-04-25T23:04:22;100716.59;;;15.25
13497;BMP180;6820;49.374;8.452;2023-04-25T23:08:25;100721.75;;;15.26
13497;BMP180;6820;49.374;8.452;2023-04-25T23:12:28;100717.50;;;15.27
13497;BMP180;6820;49.374;8.452;2023-04-25T23:16:29;100719.34;;;15.29
13497;BMP180;6820;49.374;8.452;2023-04-25T23:20:31;100710.94;;;15.32
13497;BMP180;6820;49.374;8.452;2023-04-25T23:24:37;100723.00;;;15.34
13497;BMP180;6820;49.374;8.452;2023-04-25T23:28:41;100723.00;;;15.34
13497;BMP180;6820;49.374;8.452;2023-04-25T23:32:43;100726.41;;;15.35
13497;BMP180;6820;49.374;8.452;2023-04-25T23:36:44;100722.84;;;15.31